Alanson, Michigan
Current Conditions -  °F | °C
As of 2:55 PM on Monday 22 Dec 2014 (Local Time) from KMGN Reporting Station
Clear Clear  
Wind Chill: 29°   Ceiling: Unl
Heat Index: 36°   Visibility: 10mi
Dew Point: 25°   Wind: 9mph
Humidity: 66%   Direction: 80°E
Pressure: 29.94"   Gusts: NA
Location:  45.44°N, 84.79°W
Report Text: KMGN 221955Z AUTO 08008KT 10SM CLR 02/M03 A2994 RMK AO2 T00201037
Loading
Personal Weather Stations






























Interactive Weather Map New forecast layout! Learn more

10-Day Weather Forecast

Advertisements
Track Severe Weather on mobile